sensor_id;sensor_type;location;lat;lon;timestamp;pressure;altitude;pressure_sealevel;temperature;humidity
31082;BME280;17737;52.586;13.284;2023-07-20T00:00:00;100623.00;;;15.74;100.00
31082;BME280;17737;52.586;13.284;2023-07-20T00:02:28;100633.00;;;15.74;100.00
31082;BME280;17737;52.586;13.284;2023-07-20T00:04:56;100626.50;;;15.68;100.00
31082;BME280;17737;52.586;13.284;2023-07-20T00:07:25;100637.19;;;15.70;100.00
31082;BME280;17737;52.586;13.284;2023-07-20T00:09:53;100630.06;;;15.69;100.00
31082;BME280;17737;52.586;13.284;2023-07-20T00:12:21;100627.78;;;15.72;100.00
31082;BME280;17737;52.586;13.284;2023-07-20T00:14:49;100623.78;;;15.68;100.00
31082;BME280;17737;52.586;13.284;2023-07-20T00:17:21;100626.94;;;15.72;100.00
31082;BME280;17737;52.586;13.284;2023-07-20T00:19:49;100636.16;;;15.71;100.00
31082;BME280;17737;52.586;13.284;2023-07-20T00:22:17;100633.63;;;15.69;100.00
31082;BME280;17737;52.586;13.284;2023-07-20T00:24:45;100633.84;;;15.68;100.00
31082;BME280;17737;52.586;13.284;2023-07-20T00:27:13;100636.34;;;15.63;100.00
31082;BME280;17737;52.586;13.284;2023-07-20T00:29:41;100639.25;;;15.61;100.00
31082;BME280;17737;52.586;13.284;2023-07-20T00:32:09;100639.63;;;15.58;100.00
31082;BME280;17737;52.586;13.284;2023-07-20T00:34:39;100641.53;;;15.57;100.00
31082;BME280;17737;52.586;13.284;2023-07-20T00:37:06;100641.91;;;15.54;100.00
31082;BME280;17737;52.586;13.284;2023-07-20T00:39:34;100639.63;;;15.51;100.00
31082;BME280;17737;52.586;13.284;2023-07-20T00:42:03;100638.38;;;15.47;100.00
31082;BME280;17737;52.586;13.284;2023-07-20T00:44:31;100641.22;;;15.39;100.00
31082;BME280;17737;52.586;13.284;2023-07-20T00:46:59;100642.72;;;15.42;100.00
31082;BME280;17737;52.586;13.284;2023-07-20T00:49:28;100648.69;;;15.37;100.00
31082;BME280;17737;52.586;13.284;2023-07-20T00:51:59;100651.88;;;15.41;100.00
31082;BME280;17737;52.586;13.284;2023-07-20T00:54:29;100643.28;;;15.37;100.00
31082;BME280;17737;52.586;13.284;2023-07-20T00:56:57;100641.69;;;15.49;100.00
31082;BME280;17737;52.586;13.284;2023-07-20T00:59:27;100646.53;;;15.54;100.00
31082;BME280;17737;52.586;13.284;2023-07-20T01:01:55;100640.66;;;15.50;100.00
31082;BME280;17737;52.586;13.284;2023-07-20T01:04:23;100640.00;;;15.42;100.00
31082;BME280;17737;52.586;13.284;2023-07-20T01:07:00;100643.69;;;15.34;100.00
31082;BME280;17737;52.586;13.284;2023-07-20T01:09:42;100643.88;;;15.33;100.00
31082;BME280;17737;52.586;13.284;2023-07-20T01:12:20;100649.09;;;15.28;100.00
31082;BME280;17737;52.586;13.284;2023-07-20T01:14:52;100648.88;;;15.29;100.00
31082;BME280;17737;52.586;13.284;2023-07-20T01:17:21;100647.44;;;15.33;100.00
31082;BME280;17737;52.586;13.284;2023-07-20T01:19:51;100652.25;;;15.31;100.00
31082;BME280;17737;52.586;13.284;2023-07-20T01:22:36;100650.03;;;15.41;100.00
31082;BME280;17737;52.586;13.284;2023-07-20T01:25:26;100658.81;;;15.43;100.00
31082;BME280;17737;52.586;13.284;2023-07-20T01:28:34;100645.81;;;15.39;100.00
31082;BME280;17737;52.586;13.284;2023-07-20T01:31:21;100643.28;;;15.37;100.00
31082;BME280;17737;52.586;13.284;2023-07-20T01:33:55;100645.75;;;15.32;100.00
31082;BME280;17737;52.586;13.284;2023-07-20T01:36:28;100642.44;;;15.30;100.00
31082;BME280;17737;52.586;13.284;2023-07-20T01:38:58;100644.91;;;15.25;100.00
31082;BME280;17737;52.586;13.284;2023-07-20T01:41:28;100649.06;;;15.21;100.00
31082;BME280;17737;52.586;13.284;2023-07-20T01:43:57;100656.53;;;15.13;100.00
31082;BME280;17737;52.586;13.284;2023-07-20T01:46:28;100649.41;;;15.12;100.00
31082;BME280;17737;52.586;13.284;2023-07-20T01:48:56;100644.59;;;15.07;100.00
31082;BME280;17737;52.586;13.284;2023-07-20T01:51:24;100647.53;;;15.12;100.00
31082;BME280;17737;52.586;13.284;2023-07-20T01:53:52;100637.72;;;15.11;100.00
31082;BME280;17737;52.586;13.284;2023-07-20T01:56:21;100640.25;;;15.13;100.00
31082;BME280;17737;52.586;13.284;2023-07-20T01:58:49;100639.88;;;15.22;100.00
31082;BME280;17737;52.586;13.284;2023-07-20T02:01:17;100654.28;;;15.23;100.00
31082;BME280;17737;52.586;13.284;2023-07-20T02:03:46;100655.78;;;15.25;100.00
31082;BME280;17737;52.586;13.284;2023-07-20T02:06:14;100654.72;;;15.26;100.00
31082;BME280;17737;52.586;13.284;2023-07-20T02:08:42;100655.94;;;15.24;100.00
31082;BME280;17737;52.586;13.284;2023-07-20T02:11:10;100657.63;;;15.25;100.00
31082;BME280;17737;52.586;13.284;2023-07-20T02:13:39;100647.22;;;15.28;100.00
31082;BME280;17737;52.586;13.284;2023-07-20T02:16:06;100657.88;;;15.30;100.00
31082;BME280;17737;52.586;13.284;2023-07-20T02:18:34;100654.72;;;15.26;100.00
31082;BME280;17737;52.586;13.284;2023-07-20T02:21:04;100659.53;;;15.31;100.00
31082;BME280;17737;52.586;13.284;2023-07-20T02:23:32;100653.19;;;15.17;100.00
31082;BME280;17737;52.586;13.284;2023-07-20T02:26:01;100658.66;;;15.24;100.00
31082;BME280;17737;52.586;13.284;2023-07-20T02:28:29;100657.84;;;15.23;100.00
31082;BME280;17737;52.586;13.284;2023-07-20T02:30:57;100654.94;;;15.31;100.00
31082;BME280;17737;52.586;13.284;2023-07-20T02:33:27;100654.81;;;15.39;100.00
31082;BME280;17737;52.586;13.284;2023-07-20T02:35:55;100654.47;;;15.49;100.00
31082;BME280;17737;52.586;13.284;2023-07-20T02:38:24;100647.94;;;15.43;100.00
31082;BME280;17737;52.586;13.284;2023-07-20T02:40:52;100646.19;;;15.36;100.00
31082;BME280;17737;52.586;13.284;2023-07-20T02:43:20;100648.47;;;15.32;100.00
31082;BME280;17737;52.586;13.284;2023-07-20T02:45:50;100653.31;;;15.37;100.00
31082;BME280;17737;52.586;13.284;2023-07-20T02:48:18;100653.13;;;15.38;100.00
31082;BME280;17737;52.586;13.284;2023-07-20T02:50:46;100660.16;;;15.26;100.00
31082;BME280;17737;52.586;13.284;2023-07-20T02:53:14;100665.41;;;15.34;100.00
31082;BME280;17737;52.586;13.284;2023-07-20T02:55:43;100668.47;;;15.18;100.00
31082;BME280;17737;52.586;13.284;2023-07-20T02:58:11;100670.53;;;15.16;100.00
31082;BME280;17737;52.586;13.284;2023-07-20T03:00:39;100669.34;;;15.25;100.00
31082;BME280;17737;52.586;13.284;2023-07-20T03:03:10;100676.03;;;15.29;100.00
31082;BME280;17737;52.586;13.284;2023-07-20T03:05:40;100671.00;;;15.26;100.00
31082;BME280;17737;52.586;13.284;2023-07-20T03:08:09;100672.63;;;15.21;100.00
31082;BME280;17737;52.586;13.284;2023-07-20T03:10:40;100669.25;;;15.12;100.00
31082;BME280;17737;52.586;13.284;2023-07-20T03:13:09;100675.72;;;15.11;100.00
31082;BME280;17737;52.586;13.284;2023-07-20T03:15:39;100670.88;;;15.07;100.00
31082;BME280;17737;52.586;13.284;2023-07-20T03:18:07;100671.88;;;14.99;100.00
31082;BME280;17737;52.586;13.284;2023-07-20T03:20:35;100680.91;;;15.06;100.00
31082;BME280;17737;52.586;13.284;2023-07-20T03:23:03;100683.19;;;15.03;100.00
31082;BME280;17737;52.586;13.284;2023-07-20T03:25:32;100682.78;;;15.06;100.00
31082;BME280;17737;52.586;13.284;2023-07-20T03:28:00;100684.53;;;15.20;100.00
31082;BME280;17737;52.586;13.284;2023-07-20T03:30:29;100681.91;;;15.33;100.00
31082;BME280;17737;52.586;13.284;2023-07-20T03:32:57;100684.41;;;15.34;100.00
31082;BME280;17737;52.586;13.284;2023-07-20T03:35:25;100688.41;;;15.38;100.00
31082;BME280;17737;52.586;13.284;2023-07-20T03:37:53;100688.72;;;15.22;100.00
31082;BME280;17737;52.586;13.284;2023-07-20T03:40:21;100685.44;;;15.27;100.00
31082;BME280;17737;52.586;13.284;2023-07-20T03:42:49;100687.53;;;15.31;100.00
31082;BME280;17737;52.586;13.284;2023-07-20T03:45:17;100687.38;;;15.39;100.00
31082;BME280;17737;52.586;13.284;2023-07-20T03:47:46;100693.56;;;15.27;100.00
31082;BME280;17737;52.586;13.284;2023-07-20T03:50:15;100694.63;;;15.32;100.00
31082;BME280;17737;52.586;13.284;2023-07-20T03:52:42;100697.09;;;15.27;100.00
31082;BME280;17737;52.586;13.284;2023-07-20T03:55:10;100692.97;;;15.31;100.00
31082;BME280;17737;52.586;13.284;2023-07-20T03:57:38;100701.09;;;15.31;100.00
31082;BME280;17737;52.586;13.284;2023-07-20T04:00:08;100699.44;;;15.30;100.00
31082;BME280;17737;52.586;13.284;2023-07-20T04:02:38;100698.56;;;15.23;100.00
31082;BME280;17737;52.586;13.284;2023-07-20T04:05:08;100703.59;;;15.26;100.00
31082;BME280;17737;52.586;13.284;2023-07-20T04:07:36;100701.50;;;15.28;100.00
31082;BME280;17737;52.586;13.284;2023-07-20T04:10:04;100702.31;;;15.29;100.00
31082;BME280;17737;52.586;13.284;2023-07-20T04:12:33;100704.47;;;15.33;100.00
31082;BME280;17737;52.586;13.284;2023-07-20T04:15:02;100709.63;;;15.22;100.00
31082;BME280;17737;52.586;13.284;2023-07-20T04:17:30;100705.66;;;15.24;100.00
31082;BME280;17737;52.586;13.284;2023-07-20T04:19:58;100707.72;;;15.22;100.00
31082;BME280;17737;52.586;13.284;2023-07-20T04:22:28;100705.81;;;15.16;100.00
31082;BME280;17737;52.586;13.284;2023-07-20T04:24:56;100704.22;;;15.28;100.00
31082;BME280;17737;52.586;13.284;2023-07-20T04:27:24;100708.09;;;15.40;100.00
31082;BME280;17737;52.586;13.284;2023-07-20T04:29:52;100702.97;;;15.31;100.00
31082;BME280;17737;52.586;13.284;2023-07-20T04:32:20;100707.19;;;15.33;100.00
31082;BME280;17737;52.586;13.284;2023-07-20T04:34:48;100706.03;;;15.42;100.00
31082;BME280;17737;52.586;13.284;2023-07-20T04:37:16;100711.16;;;15.37;100.00
31082;BME280;17737;52.586;13.284;2023-07-20T04:39:46;100714.16;;;15.42;100.00
31082;BME280;17737;52.586;13.284;2023-07-20T04:42:14;100710.03;;;15.59;100.00
31082;BME280;17737;52.586;13.284;2023-07-20T04:44:42;100712.19;;;15.71;100.00
31082;BME280;17737;52.586;13.284;2023-07-20T04:47:11;100707.19;;;15.68;100.00
31082;BME280;17737;52.586;13.284;2023-07-20T04:49:39;100714.88;;;15.57;100.00
31082;BME280;17737;52.586;13.284;2023-07-20T04:52:07;100713.59;;;15.60;100.00
31082;BME280;17737;52.586;13.284;2023-07-20T04:54:35;100711.91;;;15.52;100.00
31082;BME280;17737;52.586;13.284;2023-07-20T04:57:11;100713.41;;;15.62;100.00
31082;BME280;17737;52.586;13.284;2023-07-20T04:59:39;100720.31;;;15.57;100.00
31082;BME280;17737;52.586;13.284;2023-07-20T05:02:07;100714.47;;;15.67;100.00
31082;BME280;17737;52.586;13.284;2023-07-20T05:04:35;100721.00;;;15.73;100.00
31082;BME280;17737;52.586;13.284;2023-07-20T05:07:05;100723.53;;;15.81;100.00
31082;BME280;17737;52.586;13.284;2023-07-20T05:09:33;100718.63;;;16.04;100.00
31082;BME280;17737;52.586;13.284;2023-07-20T05:12:01;100718.44;;;16.12;100.00
31082;BME280;17737;52.586;13.284;2023-07-20T05:14:30;100723.66;;;16.20;100.00
31082;BME280;17737;52.586;13.284;2023-07-20T05:16:58;100716.66;;;16.58;100.00
31082;BME280;17737;52.586;13.284;2023-07-20T05:19:26;100714.50;;;16.34;100.00
31082;BME280;17737;52.586;13.284;2023-07-20T05:21:54;100722.59;;;16.21;100.00
31082;BME280;17737;52.586;13.284;2023-07-20T05:24:22;100715.34;;;16.41;100.00
31082;BME280;17737;52.586;13.284;2023-07-20T05:26:50;100713.88;;;16.32;100.00
31082;BME280;17737;52.586;13.284;2023-07-20T05:29:18;100712.19;;;16.31;100.00
31082;BME280;17737;52.586;13.284;2023-07-20T05:31:47;100713.88;;;16.32;100.00
31082;BME280;17737;52.586;13.284;2023-07-20T05:34:15;100715.81;;;16.77;100.00
31082;BME280;17737;52.586;13.284;2023-07-20T05:36:43;100713.72;;;17.95;100.00
31082;BME280;17737;52.586;13.284;2023-07-20T05:39:11;100713.13;;;18.86;100.00
31082;BME280;17737;52.586;13.284;2023-07-20T05:41:39;100702.78;;;18.95;100.00
31082;BME280;17737;52.586;13.284;2023-07-20T05:44:07;100713.69;;;18.39;100.00
31082;BME280;17737;52.586;13.284;2023-07-20T05:46:34;100710.94;;;18.02;100.00
31082;BME280;17737;52.586;13.284;2023-07-20T05:49:23;100717.53;;;18.25;100.00
31082;BME280;17737;52.586;13.284;2023-07-20T05:51:51;100714.03;;;17.67;100.00
31082;BME280;17737;52.586;13.284;2023-07-20T05:54:19;100716.84;;;17.15;100.00
31082;BME280;17737;52.586;13.284;2023-07-20T05:56:47;100714.31;;;17.46;100.00
31082;BME280;17737;52.586;13.284;2023-07-20T05:59:15;100717.22;;;17.45;100.00
31082;BME280;17737;52.586;13.284;2023-07-20T06:01:43;100726.88;;;17.47;100.00
31082;BME280;17737;52.586;13.284;2023-07-20T06:04:12;100720.38;;;17.35;100.00
31082;BME280;17737;52.586;13.284;2023-07-20T06:06:41;100723.97;;;17.10;100.00
31082;BME280;17737;52.586;13.284;2023-07-20T06:09:09;100729.41;;;17.29;100.00
31082;BME280;17737;52.586;13.284;2023-07-20T06:11:38;100729.00;;;17.19;100.00
31082;BME280;17737;52.586;13.284;2023-07-20T06:14:07;100731.31;;;17.09;100.00
31082;BME280;17737;52.586;13.284;2023-07-20T06:16:35;100720.66;;;16.88;100.00
31082;BME280;17737;52.586;13.284;2023-07-20T06:19:03;100738.22;;;16.72;100.00
31082;BME280;17737;52.586;13.284;2023-07-20T06:21:31;100740.72;;;16.67;100.00
31082;BME280;17737;52.586;13.284;2023-07-20T06:24:00;100744.91;;;16.96;100.00
31082;BME280;17737;52.586;13.284;2023-07-20T06:26:28;100740.31;;;17.03;100.00
31082;BME280;17737;52.586;13.284;2023-07-20T06:28:56;100747.22;;;17.25;100.00
31082;BME280;17737;52.586;13.284;2023-07-20T06:31:24;100742.63;;;17.06;100.00
31082;BME280;17737;52.586;13.284;2023-07-20T06:33:52;100734.88;;;17.03;100.00
31082;BME280;17737;52.586;13.284;2023-07-20T06:36:20;100750.19;;;17.04;100.00
31082;BME280;17737;52.586;13.284;2023-07-20T06:38:48;100737.38;;;17.24;100.00
31082;BME280;17737;52.586;13.284;2023-07-20T06:41:21;100745.53;;;17.31;100.00
31082;BME280;17737;52.586;13.284;2023-07-20T06:43:52;100739.47;;;17.16;100.00
31082;BME280;17737;52.586;13.284;2023-07-20T06:46:24;100743.00;;;17.62;100.00
31082;BME280;17737;52.586;13.284;2023-07-20T06:48:54;100742.97;;;17.68;100.00
31082;BME280;17737;52.586;13.284;2023-07-20T06:51:26;100744.03;;;17.61;100.00
31082;BME280;17737;52.586;13.284;2023-07-20T06:53:54;100749.91;;;17.45;100.00
31082;BME280;17737;52.586;13.284;2023-07-20T06:56:24;100754.13;;;17.34;100.00
31082;BME280;17737;52.586;13.284;2023-07-20T06:58:54;100750.56;;;17.08;100.00
31082;BME280;17737;52.586;13.284;2023-07-20T07:01:22;100747.81;;;17.40;100.00
31082;BME280;17737;52.586;13.284;2023-07-20T07:03:50;100739.44;;;17.61;100.00
31082;BME280;17737;52.586;13.284;2023-07-20T07:06:21;100731.88;;;17.63;100.00
31082;BME280;17737;52.586;13.284;2023-07-20T07:08:52;100740.19;;;17.81;100.00
31082;BME280;17737;52.586;13.284;2023-07-20T07:11:20;100746.13;;;17.65;100.00
31082;BME280;17737;52.586;13.284;2023-07-20T07:13:51;100748.97;;;17.90;100.00
31082;BME280;17737;52.586;13.284;2023-07-20T07:16:23;100748.09;;;18.47;100.00
31082;BME280;17737;52.586;13.284;2023-07-20T07:18:51;100754.47;;;18.28;100.00
31082;BME280;17737;52.586;13.284;2023-07-20T07:21:19;100749.34;;;18.00;99.27
31082;BME280;17737;52.586;13.284;2023-07-20T07:23:48;100756.69;;;18.00;98.85
31082;BME280;17737;52.586;13.284;2023-07-20T07:26:16;100765.22;;;18.16;98.04
31082;BME280;17737;52.586;13.284;2023-07-20T07:28:44;100757.25;;;18.08;96.90
31082;BME280;17737;52.586;13.284;2023-07-20T07:31:13;100748.00;;;18.16;96.65
31082;BME280;17737;52.586;13.284;2023-07-20T07:33:41;100756.22;;;18.53;93.58
31082;BME280;17737;52.586;13.284;2023-07-20T07:36:09;100751.94;;;18.26;91.62
31082;BME280;17737;52.586;13.284;2023-07-20T07:38:37;100751.69;;;18.41;90.99
31082;BME280;17737;52.586;13.284;2023-07-20T07:41:25;100743.69;;;18.39;89.56
31082;BME280;17737;52.586;13.284;2023-07-20T07:43:53;100750.63;;;18.73;88.07
31082;BME280;17737;52.586;13.284;2023-07-20T07:46:22;100753.72;;;18.52;87.00
31082;BME280;17737;52.586;13.284;2023-07-20T07:48:51;100752.47;;;18.79;86.51
31082;BME280;17737;52.586;13.284;2023-07-20T07:51:19;100753.53;;;19.34;85.05
31082;BME280;17737;52.586;13.284;2023-07-20T07:53:47;100746.38;;;19.33;83.18
31082;BME280;17737;52.586;13.284;2023-07-20T07:56:16;100751.00;;;19.26;82.93
31082;BME280;17737;52.586;13.284;2023-07-20T07:58:49;100756.06;;;19.04;82.56
31082;BME280;17737;52.586;13.284;2023-07-20T08:01:18;100758.22;;;18.71;82.66
31082;BME280;17737;52.586;13.284;2023-07-20T08:03:48;100758.16;;;18.77;83.63
31082;BME280;17737;52.586;13.284;2023-07-20T08:06:16;100764.03;;;18.81;84.55
31082;BME280;17737;52.586;13.284;2023-07-20T08:08:44;100756.78;;;18.93;83.41
31082;BME280;17737;52.586;13.284;2023-07-20T08:11:12;100758.69;;;18.92;83.40
31082;BME280;17737;52.586;13.284;2023-07-20T08:13:41;100760.75;;;19.22;81.90
31082;BME280;17737;52.586;13.284;2023-07-20T08:16:09;100764.44;;;19.34;80.61
31082;BME280;17737;52.586;13.284;2023-07-20T08:18:37;100760.91;;;19.02;80.13
31082;BME280;17737;52.586;13.284;2023-07-20T08:21:07;100769.72;;;18.73;80.27
31082;BME280;17737;52.586;13.284;2023-07-20T08:23:35;100768.28;;;18.70;79.54
31082;BME280;17737;52.586;13.284;2023-07-20T08:26:03;100768.44;;;19.06;76.29
31082;BME280;17737;52.586;13.284;2023-07-20T08:28:31;100772.72;;;19.21;74.77
31082;BME280;17737;52.586;13.284;2023-07-20T08:30:59;100768.50;;;19.00;74.51
31082;BME280;17737;52.586;13.284;2023-07-20T08:33:27;100770.56;;;19.04;75.13
31082;BME280;17737;52.586;13.284;2023-07-20T08:36:00;100780.81;;;19.09;73.28
31082;BME280;17737;52.586;13.284;2023-07-20T08:38:31;100772.72;;;19.45;72.31
31082;BME280;17737;52.586;13.284;2023-07-20T08:40:59;100766.22;;;19.64;70.45
31082;BME280;17737;52.586;13.284;2023-07-20T08:43:28;100769.44;;;19.79;70.04
31082;BME280;17737;52.586;13.284;2023-07-20T08:45:58;100760.00;;;19.93;68.15
31082;BME280;17737;52.586;13.284;2023-07-20T08:48:27;100772.16;;;20.34;68.95
31082;BME280;17737;52.586;13.284;2023-07-20T08:50:58;100771.00;;;19.87;69.85
31082;BME280;17737;52.586;13.284;2023-07-20T08:53:27;100763.56;;;20.12;70.93
31082;BME280;17737;52.586;13.284;2023-07-20T08:56:01;100761.34;;;20.39;69.95
31082;BME280;17737;52.586;13.284;2023-07-20T08:58:31;100774.34;;;20.84;67.96
31082;BME280;17737;52.586;13.284;2023-07-20T09:01:01;100765.19;;;20.79;65.98
31082;BME280;17737;52.586;13.284;2023-07-20T09:03:31;100756.47;;;20.70;64.58
31082;BME280;17737;52.586;13.284;2023-07-20T09:05:59;100760.31;;;20.51;64.51
31082;BME280;17737;52.586;13.284;2023-07-20T09:08:28;100761.38;;;20.20;65.93
31082;BME280;17737;52.586;13.284;2023-07-20T09:10:57;100763.44;;;20.55;67.21
31082;BME280;17737;52.586;13.284;2023-07-20T09:13:25;100764.06;;;20.68;66.83
31082;BME280;17737;52.586;13.284;2023-07-20T09:15:54;100759.44;;;20.39;64.67
31082;BME280;17737;52.586;13.284;2023-07-20T09:18:28;100760.59;;;20.13;66.08
31082;BME280;17737;52.586;13.284;2023-07-20T09:21:02;100768.28;;;20.05;65.38
31082;BME280;17737;52.586;13.284;2023-07-20T09:23:32;100764.25;;;19.89;65.88
31082;BME280;17737;52.586;13.284;2023-07-20T09:26:03;100770.69;;;19.59;68.30
31082;BME280;17737;52.586;13.284;2023-07-20T09:28:42;100771.13;;;19.38;71.11
31082;BME280;17737;52.586;13.284;2023-07-20T09:31:17;100773.44;;;19.09;72.08
31082;BME280;17737;52.586;13.284;2023-07-20T09:33:46;100785.81;;;18.87;74.53
31082;BME280;17737;52.586;13.284;2023-07-20T09:36:18;100788.13;;;18.84;77.07
31082;BME280;17737;52.586;13.284;2023-07-20T09:39:06;100797.66;;;18.75;79.55
31082;BME280;17737;52.586;13.284;2023-07-20T09:41:42;100792.94;;;18.57;81.67
31082;BME280;17737;52.586;13.284;2023-07-20T09:44:14;100799.03;;;18.53;82.54
31082;BME280;17737;52.586;13.284;2023-07-20T09:46:46;100803.16;;;18.68;83.39
31082;BME280;17737;52.586;13.284;2023-07-20T09:49:17;100797.56;;;18.88;82.49
31082;BME280;17737;52.586;13.284;2023-07-20T09:51:48;100793.28;;;18.98;82.07
31082;BME280;17737;52.586;13.284;2023-07-20T09:54:18;100801.66;;;19.28;81.19
31082;BME280;17737;52.586;13.284;2023-07-20T09:56:50;100805.38;;;19.09;80.69
31082;BME280;17737;52.586;13.284;2023-07-20T09:59:19;100808.78;;;19.04;81.52
31082;BME280;17737;52.586;13.284;2023-07-20T10:01:47;100807.53;;;19.00;80.30
31082;BME280;17737;52.586;13.284;2023-07-20T10:04:18;100812.66;;;18.90;82.01
31082;BME280;17737;52.586;13.284;2023-07-20T10:06:52;100813.50;;;18.91;83.10
31082;BME280;17737;52.586;13.284;2023-07-20T10:09:24;100814.47;;;19.03;83.14
31082;BME280;17737;52.586;13.284;2023-07-20T10:11:56;100809.28;;;18.64;82.86
31082;BME280;17737;52.586;13.284;2023-07-20T10:14:49;100810.53;;;18.61;85.44
31082;BME280;17737;52.586;13.284;2023-07-20T10:17:25;100812.38;;;18.98;85.32
31082;BME280;17737;52.586;13.284;2023-07-20T10:19:56;100806.50;;;19.26;83.50
31082;BME280;17737;52.586;13.284;2023-07-20T10:22:31;100815.28;;;19.03;82.44
31082;BME280;17737;52.586;13.284;2023-07-20T10:25:08;100806.69;;;19.06;82.78
31082;BME280;17737;52.586;13.284;2023-07-20T10:27:38;100799.38;;;19.50;81.63
31082;BME280;17737;52.586;13.284;2023-07-20T10:30:07;100801.94;;;19.87;79.79
31082;BME280;17737;52.586;13.284;2023-07-20T10:32:36;100796.31;;;19.64;79.62
31082;BME280;17737;52.586;13.284;2023-07-20T10:35:12;100799.34;;;19.74;77.53
31082;BME280;17737;52.586;13.284;2023-07-20T10:37:55;100791.72;;;20.12;74.96
31082;BME280;17737;52.586;13.284;2023-07-20T10:40:30;100794.47;;;20.12;74.21
31082;BME280;17737;52.586;13.284;2023-07-20T10:43:03;100797.22;;;19.94;73.40
31082;BME280;17737;52.586;13.284;2023-07-20T10:45:34;100788.41;;;19.74;73.37
31082;BME280;17737;52.586;13.284;2023-07-20T10:48:15;100790.84;;;19.82;74.18
31082;BME280;17737;52.586;13.284;2023-07-20T10:50:48;100794.03;;;19.79;72.91
31082;BME280;17737;52.586;13.284;2023-07-20T10:53:38;100791.72;;;19.58;71.58
31082;BME280;17737;52.586;13.284;2023-07-20T10:56:07;100791.72;;;19.58;72.55
31082;BME280;17737;52.586;13.284;2023-07-20T10:58:41;100790.53;;;19.72;73.15
31082;BME280;17737;52.586;13.284;2023-07-20T11:01:13;100789.19;;;19.81;72.20
31082;BME280;17737;52.586;13.284;2023-07-20T11:03:43;100785.44;;;20.12;71.67
31082;BME280;17737;52.586;13.284;2023-07-20T11:06:31;100789.22;;;20.17;69.65
31082;BME280;17737;52.586;13.284;2023-07-20T11:09:06;100793.59;;;20.00;67.47
31082;BME280;17737;52.586;13.284;2023-07-20T11:11:38;100794.03;;;19.79;68.00
31082;BME280;17737;52.586;13.284;2023-07-20T11:14:09;100781.34;;;20.39;67.35
31082;BME280;17737;52.586;13.284;2023-07-20T11:16:41;100777.75;;;20.68;66.52
31082;BME280;17737;52.586;13.284;2023-07-20T11:19:14;100781.09;;;20.41;67.49
31082;BME280;17737;52.586;13.284;2023-07-20T11:21:49;100782.34;;;20.27;68.06
31082;BME280;17737;52.586;13.284;2023-07-20T11:24:29;100788.72;;;20.02;67.80
31082;BME280;17737;52.586;13.284;2023-07-20T11:26:58;100784.69;;;20.82;66.38
31082;BME280;17737;52.586;13.284;2023-07-20T11:29:27;100788.38;;;20.47;65.24
31082;BME280;17737;52.586;13.284;2023-07-20T11:31:59;100789.50;;;20.28;66.02
31082;BME280;17737;52.586;13.284;2023-07-20T11:34:32;100785.53;;;20.23;67.14
31082;BME280;17737;52.586;13.284;2023-07-20T11:37:02;100790.00;;;20.00;68.45
31082;BME280;17737;52.586;13.284;2023-07-20T11:39:34;100800.28;;;19.86;69.75
31082;BME280;17737;52.586;13.284;2023-07-20T11:42:03;100804.72;;;19.63;71.41
31082;BME280;17737;52.586;13.284;2023-07-20T11:44:34;100811.56;;;18.67;82.26
31082;BME280;17737;52.586;13.284;2023-07-20T11:47:03;100805.78;;;17.93;92.44
31082;BME280;17737;52.586;13.284;2023-07-20T11:49:35;100805.44;;;17.70;99.09
31082;BME280;17737;52.586;13.284;2023-07-20T11:52:05;100807.72;;;17.73;100.00
31082;BME280;17737;52.586;13.284;2023-07-20T11:54:35;100804.59;;;17.69;99.71
31082;BME280;17737;52.586;13.284;2023-07-20T11:57:05;100807.06;;;17.77;100.00
31082;BME280;17737;52.586;13.284;2023-07-20T11:59:35;100805.78;;;17.93;99.95
31082;BME280;17737;52.586;13.284;2023-07-20T12:02:03;100813.91;;;18.13;99.06
31082;BME280;17737;52.586;13.284;2023-07-20T12:04:33;100810.84;;;18.34;96.87
31082;BME280;17737;52.586;13.284;2023-07-20T12:07:01;100807.50;;;18.38;93.80
31082;BME280;17737;52.586;13.284;2023-07-20T12:09:29;100809.47;;;18.69;92.96
31082;BME280;17737;52.586;13.284;2023-07-20T12:12:15;100808.66;;;18.93;91.25
31082;BME280;17737;52.586;13.284;2023-07-20T12:14:45;100792.63;;;19.28;87.09
31082;BME280;17737;52.586;13.284;2023-07-20T12:17:13;100798.81;;;19.41;83.68
31082;BME280;17737;52.586;13.284;2023-07-20T12:19:41;100805.31;;;19.65;81.45
31082;BME280;17737;52.586;13.284;2023-07-20T12:22:09;100798.88;;;19.59;79.97
31082;BME280;17737;52.586;13.284;2023-07-20T12:24:37;100796.53;;;19.81;78.10
31082;BME280;17737;52.586;13.284;2023-07-20T12:27:06;100795.31;;;19.59;76.71
31082;BME280;17737;52.586;13.284;2023-07-20T12:29:34;100791.88;;;19.45;75.86
31082;BME280;17737;52.586;13.284;2023-07-20T12:32:05;100791.63;;;19.22;74.39
31082;BME280;17737;52.586;13.284;2023-07-20T12:34:34;100790.38;;;19.49;71.12
31082;BME280;17737;52.586;13.284;2023-07-20T12:37:03;100786.38;;;19.70;69.62
31082;BME280;17737;52.586;13.284;2023-07-20T12:39:32;100789.25;;;19.93;69.38
31082;BME280;17737;52.586;13.284;2023-07-20T12:42:00;100781.97;;;20.23;66.96
31082;BME280;17737;52.586;13.284;2023-07-20T12:44:28;100779.97;;;20.48;63.92
31082;BME280;17737;52.586;13.284;2023-07-20T12:46:56;100781.66;;;20.61;62.17